This is the latest recevied weather packets stored in our database for station/object DL4LAM-15. If no packets are shown the sender has not sent any weather packets the latest 10 day(s).
| Time | Temp. | Humidity | Pressure | Rain* | Wind** | Luminosity | Snow |
|---|---|---|---|---|---|---|---|
| 1777793418 | 20° C | 62% | 1011.3 hPa | 0 mm | - | - | - |
| 1777789217 | 17.78° C | 67% | 1011.6 hPa | 0 mm | - | - | - |
| 1777787117 | 16.11° C | 81% | 1011.3 hPa | 0 mm | - | - | - |
| 1777782917 | 13.33° C | 88% | 1012 hPa | 0 mm | - | - | - |
| 1777780217 | 13.89° C | 86% | 1012.2 hPa | 0 mm | - | - | - |
| 1777779917 | 13.89° C | 86% | 1012.2 hPa | 0 mm | - | - | - |
| 1777779017 | 13.89° C | 86% | 1012.1 hPa | 0 mm | - | - | - |
| 1777776917 | 14.44° C | 86% | 1012 hPa | 0 mm | - | - | - |
| 1777776617 | 14.44° C | 86% | 1012 hPa | 0 mm | - | - | - |
| 1777775717 | 14.44° C | 84% | 1012.3 hPa | 0 mm | - | - | - |
| 1777774817 | 15° C | 82% | 1012.5 hPa | 0 mm | - | - | - |
| 1777774217 | 15.56° C | 82% | 1012.6 hPa | 0 mm | - | - | - |
| 1777771517 | 16.11° C | 79% | 1012.9 hPa | 0 mm | - | - | - |
| 1777769417 | 17.22° C | 76% | 1012.8 hPa | 0 mm | - | - | - |
| 1777767317 | 17.78° C | 75% | 1013.4 hPa | 0 mm | - | - | - |
| 1777766417 | 17.78° C | 74% | 1013.7 hPa | 0 mm | - | - | - |
| 1777764918 | 18.33° C | 72% | 1014.3 hPa | 0 mm | - | - | - |
| 1777764017 | 18.33° C | 71% | 1014.2 hPa | 0 mm | - | - | - |
| 1777763417 | 18.33° C | 71% | 1014.1 hPa | 0 mm | - | - | - |
| 1777763117 | 18.33° C | 71% | 1014.1 hPa | 0 mm | - | - | - |
| 1777753218 | 18.89° C | 67% | 1013.8 hPa | 0 mm | - | - | - |
| 1777752618 | 19.44° C | 66% | 1013.8 hPa | 0 mm | - | - | - |
| 1777750518 | 20.56° C | 60% | 1013.8 hPa | 0 mm | - | - | - |
| 1777750217 | 21.11° C | 59% | 1013.8 hPa | 0 mm | - | - | - |
| 1777749918 | 21.11° C | 58% | 1013.7 hPa | 0 mm | - | - | - |
* Rain latest hour (hover to see other rain measurements)
** Current wind speed in m/s (hover to see current wind gust speed)